メインページ
METAR-TAF:

METAR-TAF

空港 :

ハノイ, ベトナム

ノイバイ国際空港

緯度: 21-01N, 経度: 105-48E, 海抜: 6m

現時点の気象観測

当レポートは44分前の00:30(UTC)に作成
の風 5kt
気温 29°C
湿度 100%
気圧 1006 hPa
視程: 8000m
高度1700ftの雲は散在している
高度2500ftの千切れ雲あり

METAR: VVNB 230030Z 08005KT 8000 SCT017 BKN025 29/29 Q1006 NOSIG

時間: 08:14 (01:14 UTC)

予報

当レポートは2時間14分前の23:00(UTC)に作成
予報は23日の 00時(UTC)から 23日の 24時(UTC)まで有効
東/南東の風 9kt
視程: 6000m
高度1700ftの雲は散在している
23日の 23時(UTC)から 23日の 24時(UTC)まで徐々に
北東の風 12kt

TAF: VVNB 222300Z 2300/2324 12009KT 6000 SCT017 BECMG 2323/2324 05012KT

4,000以上の空港の気象観測と天気予報(METAR報とTAF報)

利用可能な観測所は地図上に黄色い丸と赤い丸で示す。

丸の上にカーソルを重ねると観測所名を参照できる。

次にクリックすると気象観測と天気予報を参照できる。

マップの切り替え:黒色「×」印の緑ボタンをクリックして拡大、「-」印の緑ボタンをクリックして縮小、緑色の三角印をクリックして隣りの地図に切り替え


METAR-TAF: